Needham Market, United Kingdom
Current Conditions -  °F | °C
As of 1:50 PM on Friday 19 Dec 2014 (Local Time) from EGUW Reporting Station
Few Clouds Few Clouds  
Wind Chill:   Ceiling: Unl
Heat Index:   Visibility: 6mi
Dew Point:   Wind: 21mph
Humidity: 66%   Direction: 280°W
Pressure: 29.94"   Gusts: NA
Location:  52.16°N, 1.05°E
Report Text: EGUW 191350Z 28018KT 9999 FEW025 08/02 Q1014 BLU NOSIG
Loading
Personal Weather Stations






























Interactive Weather Map New forecast layout! Learn more

10-Day Weather Forecast

Advertisements
Track Severe Weather on mobile